createdAt,value
2023-05-09T00:02:19.049Z,88.36
2023-05-09T00:14:19.420Z,83.86
2023-05-09T00:26:19.870Z,82.85
2023-05-09T00:38:20.327Z,83.36
2023-05-09T00:50:20.783Z,87.05
2023-05-09T01:02:21.285Z,85.08
2023-05-09T01:14:21.701Z,87.53
2023-05-09T01:26:22.150Z,89.16
2023-05-09T01:38:22.579Z,89.85
2023-05-09T01:50:23.078Z,87.58
2023-05-09T02:02:23.504Z,92.57
2023-05-09T02:14:23.977Z,98.15
2023-05-09T02:26:24.411Z,99.55
2023-05-09T02:38:24.865Z,99.64
2023-05-09T02:50:25.321Z,99.44
2023-05-09T03:02:25.793Z,90.85
2023-05-09T03:14:26.222Z,94.61
2023-05-09T03:26:26.686Z,88.11
2023-05-09T03:38:27.113Z,87.18
2023-05-09T03:50:27.568Z,88.22
2023-05-09T04:02:28.122Z,86.09
2023-05-09T04:14:28.518Z,87.22
2023-05-09T04:26:28.918Z,88.83
2023-05-09T04:38:29.382Z,89.82
2023-05-09T04:50:29.852Z,90.02
2023-05-09T05:02:30.395Z,86.19
2023-05-09T05:14:30.746Z,83.88
2023-05-09T05:26:31.191Z,84.21
2023-05-09T05:38:31.629Z,80.08
2023-05-09T05:50:32.096Z,77.17
2023-05-09T06:02:32.668Z,72.98
2023-05-09T06:14:33.027Z,72.26
2023-05-09T06:26:33.425Z,70.87
2023-05-09T06:38:33.912Z,66.14
2023-05-09T06:50:34.352Z,62.24
2023-05-09T07:02:34.841Z,60.87
2023-05-09T07:14:35.266Z,59.77
2023-05-09T07:26:35.780Z,57.36
2023-05-09T07:38:36.220Z,55.90
2023-05-09T07:50:36.627Z,58.33
2023-05-09T08:02:37.166Z,57.48
2023-05-09T08:14:37.565Z,58.54
2023-05-09T08:26:37.987Z,57.63
2023-05-09T08:38:38.447Z,58.91
2023-05-09T08:50:38.933Z,57.78
2023-05-09T09:02:39.435Z,56.29
2023-05-09T09:14:39.810Z,55.48
2023-05-09T09:26:40.273Z,51.98
2023-05-09T09:38:40.720Z,57.41
2023-05-09T09:50:41.224Z,57.13
2023-05-09T10:02:41.715Z,57.98
2023-05-09T10:14:42.096Z,52.94
2023-05-09T10:26:42.564Z,55.13
2023-05-09T10:38:42.987Z,54.03
2023-05-09T10:50:43.445Z,47.00
2023-05-09T11:02:43.946Z,46.74
2023-05-09T11:14:44.387Z,48.08
2023-05-09T11:26:44.852Z,47.09
2023-05-09T11:38:45.287Z,50.34
2023-05-09T11:50:45.715Z,51.21
2023-05-09T12:02:46.233Z,49.29
2023-05-09T12:14:46.658Z,47.49
2023-05-09T12:26:47.096Z,50.50
2023-05-09T12:38:47.513Z,46.55
2023-05-09T12:50:47.982Z,48.74
2023-05-09T13:02:48.560Z,49.51
2023-05-09T13:14:48.918Z,49.04
2023-05-09T13:26:49.345Z,49.82
2023-05-09T13:38:49.804Z,52.45
2023-05-09T14:02:50.724Z,48.84
2023-05-09T14:14:51.173Z,49.98
2023-05-09T14:26:51.640Z,47.00
2023-05-09T14:38:52.102Z,44.81
2023-05-09T14:50:52.524Z,46.79
2023-05-09T15:02:53.064Z,47.69
2023-05-09T15:14:53.437Z,47.81
2023-05-09T15:26:53.913Z,50.28
2023-05-09T15:38:54.360Z,49.48
2023-05-09T15:50:54.830Z,49.73
2023-05-09T16:02:55.389Z,49.76
2023-05-09T16:14:55.756Z,51.06
2023-05-09T16:26:56.194Z,52.74
2023-05-09T16:38:56.634Z,52.16
2023-05-09T16:50:57.073Z,51.31
2023-05-09T17:02:57.588Z,53.39
2023-05-09T17:14:58.005Z,57.73
2023-05-09T17:26:58.444Z,54.98
2023-05-09T17:38:58.881Z,54.68
2023-05-09T17:50:59.359Z,58.63
2023-05-09T18:02:59.868Z,56.72
2023-05-09T18:15:00.431Z,54.58
2023-05-09T18:27:00.728Z,56.88
2023-05-09T18:39:01.261Z,57.90
2023-05-09T18:51:01.639Z,59.10
2023-05-09T19:03:02.125Z,56.91
2023-05-09T19:15:02.524Z,61.73
2023-05-09T19:27:03.020Z,64.66
2023-05-09T19:39:03.474Z,60.23
2023-05-09T19:51:03.889Z,65.60
2023-05-09T20:03:04.492Z,67.50
2023-05-09T20:15:04.799Z,67.59
2023-05-09T20:27:05.238Z,68.79
2023-05-09T20:39:05.692Z,69.73
2023-05-09T20:51:06.162Z,69.93
2023-05-09T21:03:06.782Z,72.54
2023-05-09T21:15:07.100Z,73.51
2023-05-09T21:27:07.533Z,74.53
2023-05-09T21:39:07.995Z,75.85
2023-05-09T21:51:08.443Z,75.70
2023-05-09T22:03:08.988Z,77.09
2023-05-09T22:15:09.360Z,76.41
2023-05-09T22:27:09.803Z,79.43
2023-05-09T22:39:10.262Z,78.22
2023-05-09T22:51:10.701Z,78.82
2023-05-09T23:03:11.197Z,79.10
2023-05-09T23:15:11.606Z,78.35
2023-05-09T23:27:12.056Z,80.70
2023-05-09T23:39:12.500Z,79.70
2023-05-09T23:51:12.961Z,80.44
